createdAt,value
2017-09-30T00:00:04.110Z,15.22
2017-09-30T00:00:08.321Z,15.3
2017-09-30T00:00:12.407Z,15.19
2017-09-30T00:00:16.618Z,15.28
2017-09-30T00:00:20.980Z,15.3
2017-09-30T00:00:24.945Z,15.22
2017-09-30T00:00:28.901Z,15.22
2017-09-30T00:00:33.116Z,15.28
2017-09-30T00:00:37.596Z,15.25
2017-09-30T00:00:41.930Z,15.22
2017-09-30T00:00:45.886Z,15.23
2017-09-30T00:00:50.219Z,15.16
2017-09-30T00:00:54.440Z,15.28
2017-09-30T00:00:58.656Z,15.27
2017-09-30T00:01:03.219Z,15.18
2017-09-30T00:01:07.306Z,15.27
2017-09-30T00:01:11.274Z,15.19
2017-09-30T00:01:15.609Z,15.16
2017-09-30T00:01:19.820Z,15.19
2017-09-30T00:01:23.918Z,15.25
2017-09-30T00:01:27.878Z,15.23
2017-09-30T00:01:32.087Z,15.22
2017-09-30T00:01:36.300Z,15.2
2017-09-30T00:01:40.385Z,15.2
2017-09-30T00:01:44.729Z,15.16
2017-09-30T00:01:48.810Z,15.19
2017-09-30T00:01:52.897Z,15.22
2017-09-30T00:01:56.859Z,15.22
2017-09-30T00:02:00.944Z,15.16
2017-09-30T00:02:05.083Z,15.23
2017-09-30T00:02:09.289Z,15.19
2017-09-30T00:02:13.631Z,15.2
2017-09-30T00:02:17.852Z,15.2
2017-09-30T00:02:22.187Z,15.19
2017-09-30T00:02:26.396Z,15.19
2017-09-30T00:02:30.486Z,15.19
2017-09-30T00:02:34.443Z,15.22
2017-09-30T00:02:38.657Z,15.13
2017-09-30T00:02:42.870Z,15.25
2017-09-30T00:02:47.079Z,15.16
2017-09-30T00:02:51.162Z,15.19
2017-09-30T00:02:54.998Z,15.18
2017-09-30T00:02:59.211Z,15.19
2017-09-30T00:03:03.301Z,15.19
2017-09-30T00:03:07.391Z,15.16
2017-09-30T00:03:11.475Z,15.2
2017-09-30T00:03:15.814Z,15.16
2017-09-30T00:03:19.905Z,15.19
2017-09-30T00:03:24.112Z,15.19
2017-09-30T00:03:28.316Z,15.18
2017-09-30T00:03:32.532Z,15.18
2017-09-30T00:03:36.875Z,15.2
2017-09-30T00:03:40.961Z,15.18
2017-09-30T00:03:45.167Z,15.2
2017-09-30T00:03:49.121Z,15.23
2017-09-30T00:03:53.209Z,15.23
2017-09-30T00:03:57.423Z,15.19
2017-09-30T00:04:01.759Z,15.19
2017-09-30T00:04:05.844Z,15.15
2017-09-30T00:04:09.933Z,15.16
2017-09-30T00:04:14.141Z,15.2
2017-09-30T00:04:18.483Z,15.19
2017-09-30T00:04:22.575Z,15.16
2017-09-30T00:04:26.784Z,15.2
2017-09-30T00:04:30.871Z,15.19
2017-09-30T00:04:35.205Z,15.22
2017-09-30T00:04:39.542Z,15.19
2017-09-30T00:04:43.762Z,15.19
2017-09-30T00:04:47.974Z,15.19
2017-09-30T00:04:52.058Z,15.19
2017-09-30T00:04:56.268Z,15.18
2017-09-30T00:05:00.486Z,15.16
2017-09-30T00:05:04.573Z,15.2
2017-09-30T00:05:08.660Z,15.22
2017-09-30T00:05:12.497Z,15.15
2017-09-30T00:05:16.720Z,15.19
2017-09-30T00:05:20.933Z,15.2
2017-09-30T00:05:25.267Z,15.12
2017-09-30T00:05:29.231Z,15.19
2017-09-30T00:05:33.326Z,15.15
2017-09-30T00:05:37.690Z,15.18
2017-09-30T00:05:41.903Z,15.19
2017-09-30T00:05:45.989Z,15.2
2017-09-30T00:05:50.338Z,15.2
2017-09-30T00:05:54.668Z,15.13
2017-09-30T00:05:59.000Z,15.2
2017-09-30T00:06:03.788Z,15.19
2017-09-30T00:06:07.868Z,15.18
2017-09-30T00:06:12.203Z,15.13
2017-09-30T00:06:16.417Z,15.15
2017-09-30T00:06:20.627Z,15.19
2017-09-30T00:06:24.710Z,15.09
2017-09-30T00:06:28.806Z,15.16
2017-09-30T00:06:33.014Z,15.18
2017-09-30T00:06:37.349Z,15.16
2017-09-30T00:06:41.440Z,15.22
2017-09-30T00:06:45.804Z,15.09
2017-09-30T00:06:49.892Z,15.16
2017-09-30T00:06:54.220Z,15.12
2017-09-30T00:06:58.302Z,15.16
2017-09-30T00:07:02.547Z,15.12
2017-09-30T00:07:06.762Z,15.12
2017-09-30T00:07:10.847Z,15.2
2017-09-30T00:07:15.185Z,15.13
2017-09-30T00:07:19.524Z,15.09
2017-09-30T00:07:23.735Z,15.13
2017-09-30T00:07:27.821Z,15.19
2017-09-30T00:07:31.916Z,15.16
2017-09-30T00:07:36.133Z,15.18
2017-09-30T00:07:40.592Z,15.04
2017-09-30T00:07:44.808Z,15.05
2017-09-30T00:07:49.022Z,15.04
2017-09-30T00:07:52.985Z,15.19
2017-09-30T00:07:56.948Z,15.09
2017-09-30T00:08:01.029Z,15.18
2017-09-30T00:08:05.486Z,15.12
2017-09-30T00:08:09.702Z,15.16
2017-09-30T00:08:14.038Z,15.12
2017-09-30T00:08:18.255Z,15.11
2017-09-30T00:08:22.213Z,15.16
2017-09-30T00:08:26.681Z,15.18
2017-09-30T00:08:30.891Z,15.11
2017-09-30T00:08:34.973Z,15.15
2017-09-30T00:08:39.060Z,15.15
2017-09-30T00:08:43.273Z,15.11
2017-09-30T00:08:47.629Z,15.13
2017-09-30T00:08:51.974Z,15.15
2017-09-30T00:08:56.185Z,15.15
2017-09-30T00:09:00.149Z,15.11
2017-09-30T00:09:04.729Z,15.12
2017-09-30T00:09:08.939Z,15.11
2017-09-30T00:09:13.030Z,15.07
2017-09-30T00:09:17.250Z,15.07
2017-09-30T00:09:21.336Z,15.12
2017-09-30T00:09:25.792Z,15.11
2017-09-30T00:09:30.006Z,15.15
2017-09-30T00:09:34.223Z,15.12
2017-09-30T00:09:38.683Z,15.18
2017-09-30T00:09:42.885Z,15.13
2017-09-30T00:09:46.721Z,15.13
2017-09-30T00:09:50.932Z,15.15
2017-09-30T00:09:54.895Z,15.13
2017-09-30T00:09:59.231Z,15.18
2017-09-30T00:10:03.418Z,15.2
2017-09-30T00:10:07.635Z,15.01
2017-09-30T00:10:11.970Z,15.18
2017-09-30T00:10:16.181Z,15.16
2017-09-30T00:10:20.262Z,15.04
2017-09-30T00:10:24.492Z,15.11
2017-09-30T00:10:28.954Z,15.2
2017-09-30T00:10:33.291Z,15.16
2017-09-30T00:10:37.245Z,15.15
2017-09-30T00:10:41.580Z,15.15
2017-09-30T00:10:45.786Z,15.18
2017-09-30T00:10:49.873Z,15.01
2017-09-30T00:10:54.212Z,15.13
2017-09-30T00:10:58.296Z,15.22
2017-09-30T00:11:02.504Z,15.12
2017-09-30T00:11:06.724Z,15.15
2017-09-30T00:11:10.814Z,15.15
2017-09-30T00:11:15.151Z,15.13
2017-09-30T00:11:19.374Z,15.07
2017-09-30T00:11:23.585Z,15.13
2017-09-30T00:11:28.046Z,15.2
2017-09-30T00:11:32.254Z,15.15
2017-09-30T00:11:36.460Z,15.04
2017-09-30T00:11:40.666Z,15.15
2017-09-30T00:11:44.998Z,15.09
2017-09-30T00:11:49.206Z,15.13
2017-09-30T00:11:53.309Z,15.15
2017-09-30T00:11:57.514Z,15.12
2017-09-30T00:12:02.027Z,15.11
2017-09-30T00:12:05.989Z,15.18
2017-09-30T00:12:10.202Z,15.15
2017-09-30T00:12:14.289Z,15.16
2017-09-30T00:12:18.376Z,15.09
2017-09-30T00:12:22.461Z,15.12
2017-09-30T00:12:26.417Z,15.13
2017-09-30T00:12:30.503Z,15.19
2017-09-30T00:12:34.703Z,15.09
2017-09-30T00:12:39.173Z,15.16
2017-09-30T00:12:43.382Z,15.16
2017-09-30T00:12:47.467Z,15.22
2017-09-30T00:12:51.545Z,15.13
2017-09-30T00:12:55.636Z,15.13
2017-09-30T00:12:59.597Z,15.2
2017-09-30T00:13:04.060Z,15.15
2017-09-30T00:13:08.148Z,15.18
2017-09-30T00:13:12.371Z,15.15
2017-09-30T00:13:16.719Z,15.18
2017-09-30T00:13:20.807Z,15.16
2017-09-30T00:13:24.904Z,15.19
2017-09-30T00:13:28.864Z,15.12
2017-09-30T00:13:32.942Z,15.15
2017-09-30T00:13:37.275Z,15.16
2017-09-30T00:13:41.477Z,15.19
2017-09-30T00:13:45.681Z,15.16
2017-09-30T00:13:49.894Z,15.19
2017-09-30T00:13:53.852Z,15.19
2017-09-30T00:13:58.064Z,15.16
2017-09-30T00:14:02.273Z,15.2
2017-09-30T00:14:06.233Z,15.19
2017-09-30T00:14:10.317Z,15.15
2017-09-30T00:14:14.653Z,15.15
2017-09-30T00:14:18.733Z,15.2
2017-09-30T00:14:22.817Z,15.16
2017-09-30T00:14:27.161Z,15.22
2017-09-30T00:14:31.119Z,15.19
2017-09-30T00:14:34.957Z,15.23
2017-09-30T00:14:39.297Z,15.18
2017-09-30T00:14:43.251Z,15.2
2017-09-30T00:14:47.335Z,15.2
2017-09-30T00:14:51.170Z,15.2
2017-09-30T00:14:55.132Z,15.18
2017-09-30T00:14:59.097Z,15.19
2017-09-30T00:15:03.306Z,15.2
2017-09-30T00:15:07.266Z,15.23
2017-09-30T00:15:11.485Z,15.2
2017-09-30T00:15:15.696Z,15.22
2017-09-30T00:15:19.904Z,15.18
2017-09-30T00:15:24.368Z,15.2
2017-09-30T00:15:28.458Z,15.19
2017-09-30T00:15:32.547Z,15.16
2017-09-30T00:15:36.512Z,15.19
2017-09-30T00:15:40.597Z,15.18
2017-09-30T00:15:44.685Z,15.22
2017-09-30T00:15:48.650Z,15.2
2017-09-30T00:15:52.615Z,15.2
2017-09-30T00:15:56.835Z,15.19
2017-09-30T00:16:00.806Z,15.19
2017-09-30T00:16:05.218Z,15.2
2017-09-30T00:16:09.301Z,15.18
2017-09-30T00:16:13.637Z,15.23
2017-09-30T00:16:17.600Z,15.18
2017-09-30T00:16:21.435Z,15.18
2017-09-30T00:16:25.771Z,15.16
2017-09-30T00:16:30.113Z,15.18
2017-09-30T00:16:34.343Z,15.19
2017-09-30T00:16:38.678Z,15.19
2017-09-30T00:16:42.899Z,15.18
2017-09-30T00:16:47.111Z,15.22
2017-09-30T00:16:51.322Z,15.19
2017-09-30T00:16:55.158Z,15.18
2017-09-30T00:16:59.117Z,15.19
2017-09-30T00:17:03.457Z,15.22
2017-09-30T00:17:07.673Z,15.22
2017-09-30T00:17:11.884Z,15.19
2017-09-30T00:17:16.096Z,15.16
2017-09-30T00:17:20.444Z,15.19
2017-09-30T00:17:24.525Z,15.2
2017-09-30T00:17:28.605Z,15.2
2017-09-30T00:17:32.567Z,15.19
2017-09-30T00:17:36.785Z,15.22
2017-09-30T00:17:40.995Z,15.2
2017-09-30T00:17:45.200Z,15.16
2017-09-30T00:17:49.282Z,15.18
2017-09-30T00:17:53.362Z,15.25
2017-09-30T00:17:57.328Z,15.22
2017-09-30T00:18:01.537Z,15.22
2017-09-30T00:18:06.000Z,15.16
2017-09-30T00:18:10.214Z,15.18
2017-09-30T00:18:14.299Z,15.18
2017-09-30T00:18:18.383Z,15.18
2017-09-30T00:18:22.469Z,15.16
2017-09-30T00:18:26.676Z,15.2
2017-09-30T00:18:30.645Z,15.16
2017-09-30T00:18:34.856Z,15.23
2017-09-30T00:18:39.068Z,15.18
2017-09-30T00:18:43.037Z,15.2
2017-09-30T00:18:47.383Z,15.19
2017-09-30T00:18:51.589Z,15.18
2017-09-30T00:18:55.916Z,15.18
2017-09-30T00:19:00.001Z,15.25
2017-09-30T00:19:04.616Z,15.2
2017-09-30T00:19:08.577Z,15.25
2017-09-30T00:19:12.668Z,15.25
2017-09-30T00:19:17.125Z,15.18
2017-09-30T00:19:21.212Z,15.18
2017-09-30T00:19:25.175Z,15.2
2017-09-30T00:19:29.503Z,15.19
2017-09-30T00:19:33.593Z,15.19
2017-09-30T00:19:37.929Z,15.2
2017-09-30T00:19:42.014Z,15.18
2017-09-30T00:19:46.222Z,15.18
2017-09-30T00:19:50.436Z,15.18
2017-09-30T00:19:54.524Z,15.18
2017-09-30T00:19:58.732Z,15.19
2017-09-30T00:20:02.812Z,15.2
2017-09-30T00:20:06.900Z,15.18
2017-09-30T00:20:10.987Z,15.2
2017-09-30T00:20:15.324Z,15.2
2017-09-30T00:20:19.287Z,15.19
2017-09-30T00:20:23.370Z,15.22
2017-09-30T00:20:27.576Z,15.19
2017-09-30T00:20:31.787Z,15.23
2017-09-30T00:20:35.875Z,15.18
2017-09-30T00:20:39.965Z,15.2
2017-09-30T00:20:44.052Z,15.2
2017-09-30T00:20:48.387Z,15.19
2017-09-30T00:20:52.471Z,15.2
2017-09-30T00:20:56.551Z,15.2
2017-09-30T00:21:00.780Z,15.23
2017-09-30T00:21:05.364Z,15.16
2017-09-30T00:21:09.327Z,15.19
2017-09-30T00:21:13.412Z,15.19
2017-09-30T00:21:17.627Z,15.19
2017-09-30T00:21:21.715Z,15.19
2017-09-30T00:21:25.927Z,15.25
2017-09-30T00:21:30.147Z,15.2
2017-09-30T00:21:34.610Z,15.16
2017-09-30T00:21:38.446Z,15.18
2017-09-30T00:21:42.653Z,15.19
2017-09-30T00:21:46.494Z,15.2
2017-09-30T00:21:50.585Z,15.2
2017-09-30T00:21:54.789Z,15.2
2017-09-30T00:21:58.873Z,15.2
2017-09-30T00:22:03.185Z,15.2
2017-09-30T00:22:07.144Z,15.22
2017-09-30T00:22:11.231Z,15.16
2017-09-30T00:22:15.187Z,15.2
2017-09-30T00:22:19.399Z,15.16
2017-09-30T00:22:23.861Z,15.15
2017-09-30T00:22:27.819Z,15.18
2017-09-30T00:22:32.029Z,15.2
2017-09-30T00:22:36.382Z,15.19
2017-09-30T00:22:40.718Z,15.19
2017-09-30T00:22:44.675Z,15.2
2017-09-30T00:22:48.762Z,15.19
2017-09-30T00:22:52.847Z,15.2
2017-09-30T00:22:56.926Z,15.23
2017-09-30T00:23:01.136Z,15.23
2017-09-30T00:23:05.346Z,15.15
2017-09-30T00:23:09.430Z,15.19
2017-09-30T00:23:13.772Z,15.18
2017-09-30T00:23:17.733Z,15.13
2017-09-30T00:23:21.690Z,15.22
2017-09-30T00:23:25.917Z,15.19
2017-09-30T00:23:30.269Z,15.19
2017-09-30T00:23:34.726Z,15.22
2017-09-30T00:23:38.559Z,15.27
2017-09-30T00:23:42.649Z,15.2
2017-09-30T00:23:46.739Z,15.3
2017-09-30T00:23:50.822Z,15.23
2017-09-30T00:23:54.787Z,15.19
2017-09-30T00:23:58.876Z,15.13
2017-09-30T00:24:03.365Z,15.19
2017-09-30T00:24:07.443Z,15.23
2017-09-30T00:24:11.403Z,15.3
2017-09-30T00:24:15.743Z,15.22
2017-09-30T00:24:19.578Z,15.23
2017-09-30T00:24:23.673Z,15.16
2017-09-30T00:24:27.759Z,15.23
2017-09-30T00:24:31.975Z,15.23
2017-09-30T00:24:36.190Z,15.27
2017-09-30T00:24:40.272Z,15.27
2017-09-30T00:24:44.369Z,15.25
2017-09-30T00:24:48.955Z,15.27
2017-09-30T00:24:53.164Z,15.3
2017-09-30T00:24:57.254Z,15.2
2017-09-30T00:25:01.466Z,15.25
2017-09-30T00:25:05.687Z,15.3
2017-09-30T00:25:09.770Z,15.28
2017-09-30T00:25:13.738Z,15.2
2017-09-30T00:25:17.956Z,15.22
2017-09-30T00:25:21.916Z,15.22
2017-09-30T00:25:25.879Z,15.31
2017-09-30T00:25:29.960Z,15.28
2017-09-30T00:25:33.917Z,15.27
2017-09-30T00:25:38.403Z,15.3
2017-09-30T00:25:42.458Z,15.28
2017-09-30T00:25:46.542Z,15.31
2017-09-30T00:25:50.625Z,15.22
2017-09-30T00:25:54.831Z,15.22
2017-09-30T00:25:59.041Z,15.2
2017-09-30T00:26:03.349Z,15.3
2017-09-30T00:26:07.437Z,15.22
2017-09-30T00:26:11.654Z,15.25
2017-09-30T00:26:15.741Z,15.22
2017-09-30T00:26:20.075Z,15.28
2017-09-30T00:26:24.291Z,15.33
2017-09-30T00:26:28.765Z,15.25
2017-09-30T00:26:32.970Z,15.33
2017-09-30T00:26:37.309Z,15.28
2017-09-30T00:26:41.394Z,15.31
2017-09-30T00:26:45.736Z,15.34
2017-09-30T00:26:49.824Z,15.31
2017-09-30T00:26:54.037Z,15.27
2017-09-30T00:26:57.995Z,15.23
2017-09-30T00:27:02.348Z,15.28
2017-09-30T00:27:06.569Z,15.31
2017-09-30T00:27:10.776Z,15.34
2017-09-30T00:27:14.870Z,15.25
2017-09-30T00:27:19.087Z,15.31
2017-09-30T00:27:23.174Z,15.33
2017-09-30T00:27:27.382Z,15.33
2017-09-30T00:27:31.721Z,15.31
2017-09-30T00:27:35.933Z,15.31
2017-09-30T00:27:40.265Z,15.38
2017-09-30T00:27:44.225Z,15.27
2017-09-30T00:27:48.557Z,15.33
2017-09-30T00:27:53.025Z,15.4
2017-09-30T00:27:57.266Z,15.3
2017-09-30T00:28:01.905Z,15.3
2017-09-30T00:28:05.989Z,15.33
2017-09-30T00:28:09.950Z,15.33
2017-09-30T00:28:13.789Z,15.31
2017-09-30T00:28:17.873Z,15.33
2017-09-30T00:28:22.211Z,15.35
2017-09-30T00:28:26.424Z,15.34
2017-09-30T00:28:30.510Z,15.34
2017-09-30T00:28:34.464Z,15.4
2017-09-30T00:28:38.426Z,15.33
2017-09-30T00:28:42.637Z,15.3
2017-09-30T00:28:46.970Z,15.31
2017-09-30T00:28:51.180Z,15.37
2017-09-30T00:28:55.271Z,15.33
2017-09-30T00:28:59.362Z,15.37
2017-09-30T00:29:03.807Z,15.37
2017-09-30T00:29:08.141Z,15.34
2017-09-30T00:29:12.350Z,15.33
2017-09-30T00:29:16.687Z,15.31
2017-09-30T00:29:20.777Z,15.37
2017-09-30T00:29:25.242Z,15.31
2017-09-30T00:29:29.461Z,15.33
2017-09-30T00:29:33.549Z,15.33
2017-09-30T00:29:37.632Z,15.41
2017-09-30T00:29:41.840Z,15.35
2017-09-30T00:29:46.047Z,15.38
2017-09-30T00:29:50.010Z,15.34
2017-09-30T00:29:54.224Z,15.41
2017-09-30T00:29:58.182Z,15.35
2017-09-30T00:30:02.272Z,15.4
2017-09-30T00:30:06.486Z,15.4
2017-09-30T00:30:10.449Z,15.41
2017-09-30T00:30:14.533Z,15.35
2017-09-30T00:30:18.491Z,15.34
2017-09-30T00:30:22.578Z,15.34
2017-09-30T00:30:26.791Z,15.37
2017-09-30T00:30:30.748Z,15.37
2017-09-30T00:30:35.214Z,15.41
2017-09-30T00:30:39.429Z,15.43
2017-09-30T00:30:43.387Z,15.37
2017-09-30T00:30:47.716Z,15.41
2017-09-30T00:30:52.173Z,15.44
2017-09-30T00:30:56.255Z,15.41
2017-09-30T00:31:00.217Z,15.44
2017-09-30T00:31:04.932Z,15.41
2017-09-30T00:31:09.013Z,15.4
2017-09-30T00:31:12.978Z,15.43
2017-09-30T00:31:17.201Z,15.46
2017-09-30T00:31:21.538Z,15.38
2017-09-30T00:31:25.642Z,15.44
2017-09-30T00:31:29.737Z,15.4
2017-09-30T00:31:33.827Z,15.4
2017-09-30T00:31:38.033Z,15.44
2017-09-30T00:31:41.995Z,15.44
2017-09-30T00:31:46.084Z,15.4
2017-09-30T00:31:50.167Z,15.4
2017-09-30T00:31:54.374Z,15.35
2017-09-30T00:31:58.330Z,15.37
2017-09-30T00:32:02.546Z,15.41
2017-09-30T00:32:07.010Z,15.4
2017-09-30T00:32:11.093Z,15.41
2017-09-30T00:32:15.436Z,15.46
2017-09-30T00:32:19.652Z,15.37
2017-09-30T00:32:23.607Z,15.46
2017-09-30T00:32:27.692Z,15.4
2017-09-30T00:32:31.909Z,15.46
2017-09-30T00:32:35.998Z,15.4
2017-09-30T00:32:40.204Z,15.43
2017-09-30T00:32:44.412Z,15.41
2017-09-30T00:32:48.623Z,15.43
2017-09-30T00:32:52.962Z,15.44
2017-09-30T00:32:57.418Z,15.41
2017-09-30T00:33:01.752Z,15.41
2017-09-30T00:33:06.061Z,15.46
2017-09-30T00:33:10.271Z,15.43
2017-09-30T00:33:14.614Z,15.46
2017-09-30T00:33:18.817Z,15.37
2017-09-30T00:33:22.899Z,15.46
2017-09-30T00:33:27.247Z,15.38
2017-09-30T00:33:31.458Z,15.46
2017-09-30T00:33:35.918Z,15.4
2017-09-30T00:33:40.132Z,15.51
2017-09-30T00:33:44.218Z,15.41
2017-09-30T00:33:48.300Z,15.48
2017-09-30T00:33:52.507Z,15.46
2017-09-30T00:33:56.839Z,15.4
2017-09-30T00:34:01.298Z,15.51
2017-09-30T00:34:05.606Z,15.4
2017-09-30T00:34:09.695Z,15.41
2017-09-30T00:34:13.787Z,15.43
2017-09-30T00:34:17.627Z,15.43
2017-09-30T00:34:21.711Z,15.44
2017-09-30T00:34:25.924Z,15.43
2017-09-30T00:34:30.133Z,15.49
2017-09-30T00:34:34.214Z,15.44
2017-09-30T00:34:38.425Z,15.4
2017-09-30T00:34:42.766Z,15.44
2017-09-30T00:34:47.111Z,15.4
2017-09-30T00:34:51.317Z,15.43
2017-09-30T00:34:55.405Z,15.4
2017-09-30T00:34:59.488Z,15.41
2017-09-30T00:35:03.949Z,15.43
2017-09-30T00:35:08.037Z,15.41
2017-09-30T00:35:12.252Z,15.44
2017-09-30T00:35:16.593Z,15.43
2017-09-30T00:35:20.425Z,15.44
2017-09-30T00:35:24.885Z,15.48
2017-09-30T00:35:29.093Z,15.41
2017-09-30T00:35:33.179Z,15.4
2017-09-30T00:35:37.394Z,15.51
2017-09-30T00:35:41.723Z,15.46
2017-09-30T00:35:45.928Z,15.52
2017-09-30T00:35:50.012Z,15.46
2017-09-30T00:35:54.233Z,15.43
2017-09-30T00:35:58.321Z,15.44
2017-09-30T00:36:02.783Z,15.48
2017-09-30T00:36:07.112Z,15.46
2017-09-30T00:36:11.327Z,15.46
2017-09-30T00:36:15.293Z,15.4
2017-09-30T00:36:19.632Z,15.43
2017-09-30T00:36:23.846Z,15.46
2017-09-30T00:36:27.935Z,15.43
2017-09-30T00:36:32.155Z,15.43
2017-09-30T00:36:36.116Z,15.48
2017-09-30T00:36:40.318Z,15.41
2017-09-30T00:36:44.402Z,15.48
2017-09-30T00:36:48.498Z,15.41
2017-09-30T00:36:52.333Z,15.43
2017-09-30T00:36:56.417Z,15.37
2017-09-30T00:37:00.630Z,15.41
2017-09-30T00:37:04.585Z,15.4
2017-09-30T00:37:08.420Z,15.4
2017-09-30T00:37:12.502Z,15.41
2017-09-30T00:37:16.711Z,15.46
2017-09-30T00:37:20.668Z,15.41
2017-09-30T00:37:25.001Z,15.4
2017-09-30T00:37:29.089Z,15.4
2017-09-30T00:37:33.175Z,15.44
2017-09-30T00:37:37.512Z,15.38
2017-09-30T00:37:41.471Z,15.48
2017-09-30T00:37:45.676Z,15.46
2017-09-30T00:37:49.512Z,15.41
2017-09-30T00:37:53.976Z,15.41
2017-09-30T00:37:58.187Z,15.37
2017-09-30T00:38:02.471Z,15.38
2017-09-30T00:38:06.803Z,15.44
2017-09-30T00:38:11.016Z,15.38
2017-09-30T00:38:15.097Z,15.37
2017-09-30T00:38:18.931Z,15.41
2017-09-30T00:38:23.012Z,15.37
2017-09-30T00:38:27.228Z,15.38
2017-09-30T00:38:31.313Z,15.35
2017-09-30T00:38:35.273Z,15.41
2017-09-30T00:38:39.602Z,15.35
2017-09-30T00:38:43.557Z,15.38
2017-09-30T00:38:48.019Z,15.4
2017-09-30T00:38:52.227Z,15.4
2017-09-30T00:38:56.187Z,15.4
2017-09-30T00:39:00.395Z,15.37
2017-09-30T00:39:04.479Z,15.34
2017-09-30T00:39:08.568Z,15.37
2017-09-30T00:39:12.527Z,15.33
2017-09-30T00:39:16.493Z,15.33
2017-09-30T00:39:20.457Z,15.38
2017-09-30T00:39:24.666Z,15.3
2017-09-30T00:39:28.746Z,15.38
2017-09-30T00:39:32.835Z,15.28
2017-09-30T00:39:37.053Z,15.35
2017-09-30T00:39:41.389Z,15.34
2017-09-30T00:39:45.600Z,15.34
2017-09-30T00:39:49.691Z,15.33
2017-09-30T00:39:53.777Z,15.41
2017-09-30T00:39:57.862Z,15.27
2017-09-30T00:40:02.198Z,15.31
2017-09-30T00:40:06.285Z,15.34
2017-09-30T00:40:10.499Z,15.3
2017-09-30T00:40:14.705Z,15.38
2017-09-30T00:40:18.792Z,15.3
2017-09-30T00:40:22.781Z,15.38
2017-09-30T00:40:27.013Z,15.31
2017-09-30T00:40:31.343Z,15.23
2017-09-30T00:40:35.810Z,15.35
2017-09-30T00:40:39.772Z,15.34
2017-09-30T00:40:43.981Z,15.31
2017-09-30T00:40:47.949Z,15.31
2017-09-30T00:40:51.904Z,15.27
2017-09-30T00:40:55.983Z,15.34
2017-09-30T00:41:00.194Z,15.31
2017-09-30T00:41:04.507Z,15.31
2017-09-30T00:41:08.712Z,15.34
2017-09-30T00:41:12.931Z,15.3
2017-09-30T00:41:16.891Z,15.23
2017-09-30T00:41:20.851Z,15.27
2017-09-30T00:41:24.937Z,15.23
2017-09-30T00:41:29.144Z,15.25
2017-09-30T00:41:33.226Z,15.22
2017-09-30T00:41:37.179Z,15.3
2017-09-30T00:41:41.257Z,15.2
2017-09-30T00:41:45.353Z,15.25
2017-09-30T00:41:49.688Z,15.31
2017-09-30T00:41:53.771Z,15.2
2017-09-30T00:41:58.106Z,15.22
2017-09-30T00:42:02.472Z,15.22
2017-09-30T00:42:06.681Z,15.23
2017-09-30T00:42:10.777Z,15.27
2017-09-30T00:42:15.002Z,15.2
2017-09-30T00:42:18.963Z,15.25
2017-09-30T00:42:22.928Z,15.23
2017-09-30T00:42:27.143Z,15.22
2017-09-30T00:42:31.365Z,15.19
2017-09-30T00:42:35.327Z,15.27
2017-09-30T00:42:39.665Z,15.23
2017-09-30T00:42:43.998Z,15.25
2017-09-30T00:42:48.080Z,15.28
2017-09-30T00:42:52.160Z,15.22
2017-09-30T00:42:56.493Z,15.25
2017-09-30T00:43:00.576Z,15.28
2017-09-30T00:43:04.530Z,15.19
2017-09-30T00:43:08.491Z,15.3
2017-09-30T00:43:12.709Z,15.28
2017-09-30T00:43:16.672Z,15.3
2017-09-30T00:43:20.509Z,15.27
2017-09-30T00:43:24.720Z,15.28
2017-09-30T00:43:28.806Z,15.3
2017-09-30T00:43:32.887Z,15.3
2017-09-30T00:43:36.852Z,15.22
2017-09-30T00:43:41.057Z,15.27
2017-09-30T00:43:45.148Z,15.27
2017-09-30T00:43:49.233Z,15.22
2017-09-30T00:43:53.316Z,15.27
2017-09-30T00:43:57.647Z,15.27
2017-09-30T00:44:01.612Z,15.27
2017-09-30T00:44:05.822Z,15.18
2017-09-30T00:44:09.782Z,15.23
2017-09-30T00:44:13.742Z,15.27
2017-09-30T00:44:18.337Z,15.2
2017-09-30T00:44:22.299Z,15.19
2017-09-30T00:44:26.382Z,15.23
2017-09-30T00:44:30.343Z,15.15
2017-09-30T00:44:34.433Z,15.19
2017-09-30T00:44:38.769Z,15.22
2017-09-30T00:44:43.100Z,15.19
2017-09-30T00:44:47.312Z,15.25
2017-09-30T00:44:51.524Z,15.27
2017-09-30T00:44:55.356Z,15.18
2017-09-30T00:44:59.313Z,15.23
2017-09-30T00:45:03.274Z,15.2
2017-09-30T00:45:07.360Z,15.18
2017-09-30T00:45:11.443Z,15.2
2017-09-30T00:45:15.654Z,15.18
2017-09-30T00:45:19.869Z,15.2
2017-09-30T00:45:24.089Z,15.19
2017-09-30T00:45:27.923Z,15.19
2017-09-30T00:45:32.011Z,15.2
2017-09-30T00:45:36.345Z,15.23
2017-09-30T00:45:40.560Z,15.18
2017-09-30T00:45:44.515Z,15.16
2017-09-30T00:45:48.595Z,15.18
2017-09-30T00:45:52.679Z,15.22
2017-09-30T00:45:56.645Z,15.19
2017-09-30T00:46:00.856Z,15.25
2017-09-30T00:46:05.202Z,15.16
2017-09-30T00:46:09.035Z,15.18
2017-09-30T00:46:12.993Z,15.18
2017-09-30T00:46:17.082Z,15.19
2017-09-30T00:46:21.040Z,15.2
2017-09-30T00:46:25.003Z,15.16
2017-09-30T00:46:29.340Z,15.2
2017-09-30T00:46:33.551Z,15.18
2017-09-30T00:46:37.510Z,15.18
2017-09-30T00:46:41.600Z,15.2
2017-09-30T00:46:45.814Z,15.16
2017-09-30T00:46:49.896Z,15.22
2017-09-30T00:46:53.983Z,15.19
2017-09-30T00:46:58.062Z,15.19
2017-09-30T00:47:02.660Z,15.2
2017-09-30T00:47:06.872Z,15.2
2017-09-30T00:47:10.712Z,15.12
2017-09-30T00:47:14.798Z,15.19
2017-09-30T00:47:19.010Z,15.15
2017-09-30T00:47:22.847Z,15.13
2017-09-30T00:47:27.062Z,15.07
2017-09-30T00:47:31.148Z,15.16
2017-09-30T00:47:35.228Z,15.09
2017-09-30T00:47:39.313Z,15.13
2017-09-30T00:47:43.771Z,15.15
2017-09-30T00:47:48.100Z,15.11
2017-09-30T00:47:52.057Z,15.16
2017-09-30T00:47:56.515Z,15.13
2017-09-30T00:48:00.728Z,15.07
2017-09-30T00:48:04.691Z,15.16
2017-09-30T00:48:09.021Z,15.16
2017-09-30T00:48:13.111Z,15.09
2017-09-30T00:48:17.335Z,15.12
2017-09-30T00:48:21.669Z,15.12
2017-09-30T00:48:25.754Z,15.16
2017-09-30T00:48:29.718Z,15.12
2017-09-30T00:48:33.799Z,15.18
2017-09-30T00:48:37.639Z,15.11
2017-09-30T00:48:41.846Z,15.09
2017-09-30T00:48:46.054Z,15.11
2017-09-30T00:48:50.019Z,15.11
2017-09-30T00:48:54.366Z,15.12
2017-09-30T00:48:58.323Z,15.09
2017-09-30T00:49:02.864Z,15.05
2017-09-30T00:49:07.214Z,15.18
2017-09-30T00:49:11.048Z,15.15
2017-09-30T00:49:15.127Z,15.11
2017-09-30T00:49:19.211Z,15.18
2017-09-30T00:49:23.667Z,15.16
2017-09-30T00:49:27.627Z,15
2017-09-30T00:49:31.962Z,15.04
2017-09-30T00:49:36.045Z,15.13
2017-09-30T00:49:40.379Z,15.07
2017-09-30T00:49:44.588Z,15.12
2017-09-30T00:49:49.050Z,15.04
2017-09-30T00:49:53.147Z,14.98
2017-09-30T00:49:57.349Z,15
2017-09-30T00:50:01.686Z,15.18
2017-09-30T00:50:06.149Z,15.03
2017-09-30T00:50:10.249Z,15.05
2017-09-30T00:50:14.706Z,15.03
2017-09-30T00:50:18.666Z,15.01
2017-09-30T00:50:22.746Z,15.07
2017-09-30T00:50:26.838Z,15.05
2017-09-30T00:50:31.063Z,15.01
2017-09-30T00:50:35.026Z,15.01
2017-09-30T00:50:39.235Z,15.07
2017-09-30T00:50:43.703Z,15.04
2017-09-30T00:50:48.040Z,15.05
2017-09-30T00:50:52.502Z,15.07
2017-09-30T00:50:56.582Z,15.07
2017-09-30T00:51:00.794Z,15.09
2017-09-30T00:51:04.883Z,15.03
2017-09-30T00:51:08.845Z,15.11
2017-09-30T00:51:13.061Z,15.04
2017-09-30T00:51:17.273Z,15.09
2017-09-30T00:51:21.354Z,15.04
2017-09-30T00:51:25.442Z,15.09
2017-09-30T00:51:29.281Z,15.05
2017-09-30T00:51:33.370Z,15.11
2017-09-30T00:51:37.702Z,15.03
2017-09-30T00:51:41.794Z,15.11
2017-09-30T00:51:45.875Z,15.07
2017-09-30T00:51:50.086Z,15.07
2017-09-30T00:51:54.174Z,15.05
2017-09-30T00:51:58.637Z,15.09
2017-09-30T00:52:02.602Z,15.11
2017-09-30T00:52:06.685Z,15.09
2017-09-30T00:52:10.920Z,15.07
2017-09-30T00:52:15.008Z,15.01
2017-09-30T00:52:19.231Z,15.05
2017-09-30T00:52:23.215Z,15.11
2017-09-30T00:52:27.547Z,15.05
2017-09-30T00:52:31.512Z,15.07
2017-09-30T00:52:35.845Z,15.07
2017-09-30T00:52:40.180Z,15.05
2017-09-30T00:52:44.637Z,15.11
2017-09-30T00:52:48.721Z,14.98
2017-09-30T00:52:53.305Z,15.04
2017-09-30T00:52:57.391Z,15.05
2017-09-30T00:53:01.595Z,15.01
2017-09-30T00:53:05.806Z,15.05
2017-09-30T00:53:09.763Z,15.04
2017-09-30T00:53:13.870Z,15.07
2017-09-30T00:53:18.205Z,15.03
2017-09-30T00:53:22.284Z,15.01
2017-09-30T00:53:26.620Z,15.09
2017-09-30T00:53:30.833Z,15.11
2017-09-30T00:53:34.929Z,15.04
2017-09-30T00:53:38.764Z,15.07
2017-09-30T00:53:42.975Z,15.11
2017-09-30T00:53:47.306Z,15.07
2017-09-30T00:53:51.267Z,15.12
2017-09-30T00:53:55.227Z,15.01